createdAt,value
2019-05-09T00:01:35.110Z,83.30
2019-05-09T00:04:04.391Z,83.20
2019-05-09T00:06:34.099Z,83.30
2019-05-09T00:09:03.893Z,83.50
2019-05-09T00:11:33.644Z,83.50
2019-05-09T00:14:04.470Z,83.50
2019-05-09T00:16:34.107Z,83.50
2019-05-09T00:19:03.532Z,83.60
2019-05-09T00:21:40.793Z,83.50
2019-05-09T00:24:10.059Z,83.60
2019-05-09T00:26:39.414Z,83.40
2019-05-09T00:29:14.112Z,83.30
2019-05-09T00:31:55.908Z,83.20
2019-05-09T00:34:33.809Z,83.20
2019-05-09T00:37:03.227Z,83.20
2019-05-09T00:39:34.062Z,83.90
2019-05-09T00:42:04.328Z,83.20
2019-05-09T00:44:36.013Z,83.40
2019-05-09T00:47:20.983Z,83.10
2019-05-09T00:49:50.214Z,83.20
2019-05-09T00:52:19.619Z,83.20
2019-05-09T00:54:48.897Z,83.20
2019-05-09T00:57:36.446Z,83.30
2019-05-09T01:00:14.607Z,83.40
2019-05-09T01:02:43.559Z,83.30
2019-05-09T01:05:13.353Z,83.40
2019-05-09T01:07:43.170Z,83.30
2019-05-09T01:10:13.502Z,83.40
2019-05-09T01:12:43.526Z,83.50
2019-05-09T01:15:13.408Z,83.50
2019-05-09T01:17:44.134Z,83.60
2019-05-09T01:20:14.677Z,83.70
2019-05-09T01:22:44.167Z,83.60
2019-05-09T01:25:17.219Z,83.60
2019-05-09T01:27:46.442Z,83.80
2019-05-09T01:30:16.349Z,83.70
2019-05-09T01:33:10.468Z,83.80
2019-05-09T01:35:39.803Z,83.70
2019-05-09T01:38:09.166Z,83.30
2019-05-09T01:40:38.883Z,83.90
2019-05-09T01:43:10.978Z,84.00
2019-05-09T01:45:40.181Z,84.00
2019-05-09T01:48:13.742Z,83.90
2019-05-09T01:50:43.228Z,83.90
2019-05-09T01:53:14.311Z,83.90
2019-05-09T01:55:59.256Z,84.00
2019-05-09T01:58:34.342Z,83.90
2019-05-09T02:01:06.438Z,84.00
2019-05-09T02:03:35.745Z,83.90
2019-05-09T02:06:05.512Z,83.80
2019-05-09T02:08:34.823Z,83.70
2019-05-09T02:11:04.345Z,83.80
2019-05-09T02:13:34.064Z,84.00
2019-05-09T02:16:23.346Z,84.20
2019-05-09T02:19:13.601Z,84.20
2019-05-09T02:21:55.279Z,84.20
2019-05-09T02:24:24.641Z,83.80
2019-05-09T02:26:53.913Z,83.90
2019-05-09T02:29:23.321Z,84.00
2019-05-09T02:31:54.648Z,84.00
2019-05-09T02:34:24.888Z,84.00
2019-05-09T02:36:54.398Z,84.00
2019-05-09T02:39:23.639Z,84.00
2019-05-09T02:42:05.140Z,84.10
2019-05-09T02:44:23.884Z,83.90
2019-05-09T02:47:12.218Z,84.00
2019-05-09T02:49:41.574Z,84.00
2019-05-09T02:52:10.909Z,83.90
2019-05-09T02:54:40.198Z,84.00
2019-05-09T02:57:09.842Z,83.90
2019-05-09T02:59:59.233Z,84.00
2019-05-09T03:02:59.973Z,84.10
2019-05-09T03:05:29.793Z,84.40
2019-05-09T03:07:59.435Z,84.60
2019-05-09T03:10:29.468Z,84.60
2019-05-09T03:12:59.598Z,84.70
2019-05-09T03:15:29.547Z,84.50
2019-05-09T03:17:59.895Z,84.50
2019-05-09T03:20:49.235Z,84.40
2019-05-09T03:23:19.148Z,84.40
2019-05-09T03:25:48.745Z,84.40
2019-05-09T03:28:43.121Z,84.40
2019-05-09T03:31:19.700Z,84.30
2019-05-09T03:33:50.162Z,84.60
2019-05-09T03:36:18.647Z,84.60
2019-05-09T03:38:47.843Z,84.60
2019-05-09T03:41:17.791Z,84.40
2019-05-09T03:43:48.221Z,84.40
2019-05-09T03:46:33.839Z,84.40
2019-05-09T03:49:03.524Z,84.60
2019-05-09T03:51:32.755Z,84.40
2019-05-09T03:54:02.003Z,84.40
2019-05-09T03:56:37.543Z,84.40
2019-05-09T03:59:08.338Z,84.40
2019-05-09T04:01:38.229Z,84.30
2019-05-09T04:04:08.746Z,84.40
2019-05-09T04:06:39.068Z,84.20
2019-05-09T04:09:08.807Z,84.00
2019-05-09T04:11:38.285Z,83.90
2019-05-09T04:14:11.635Z,83.80
2019-05-09T04:16:41.016Z,83.80
2019-05-09T04:19:10.260Z,83.80
2019-05-09T04:21:39.484Z,83.90
2019-05-09T04:24:08.695Z,83.90
2019-05-09T04:26:59.988Z,84.00
2019-05-09T04:29:29.307Z,83.90
2019-05-09T04:31:58.977Z,84.00
2019-05-09T04:34:28.351Z,84.10
2019-05-09T04:36:57.824Z,84.00
2019-05-09T04:39:28.307Z,83.80
2019-05-09T04:42:03.642Z,83.90
2019-05-09T04:44:38.092Z,83.90
2019-05-09T04:47:08.716Z,83.90
2019-05-09T04:49:40.986Z,83.80
2019-05-09T04:52:09.577Z,83.80
2019-05-09T04:54:38.932Z,83.80
2019-05-09T04:57:08.205Z,83.80
2019-05-09T04:59:37.552Z,83.80
2019-05-09T05:02:28.910Z,83.90
2019-05-09T05:04:58.624Z,83.90
2019-05-09T05:07:28.696Z,83.90
2019-05-09T05:09:58.272Z,83.90
2019-05-09T05:12:27.820Z,83.90
2019-05-09T05:14:58.057Z,83.90
2019-05-09T05:17:30.264Z,83.90
2019-05-09T05:19:59.482Z,83.90
2019-05-09T05:22:38.714Z,83.90
2019-05-09T05:25:09.245Z,83.90
2019-05-09T05:27:39.073Z,84.00
2019-05-09T05:30:08.493Z,84.00
2019-05-09T05:32:43.545Z,84.00
2019-05-09T05:35:19.395Z,84.10
2019-05-09T05:37:48.641Z,84.00
2019-05-09T05:40:18.032Z,84.10
2019-05-09T05:42:47.771Z,84.20
2019-05-09T05:45:18.155Z,84.10
2019-05-09T05:47:57.778Z,84.20
2019-05-09T05:50:28.097Z,84.10
2019-05-09T05:52:57.957Z,84.00
2019-05-09T05:55:27.564Z,84.00
2019-05-09T05:57:57.933Z,84.00
2019-05-09T06:00:28.673Z,83.90
2019-05-09T06:02:58.729Z,83.90
2019-05-09T06:05:28.382Z,83.90
2019-05-09T06:07:57.863Z,84.00
2019-05-09T06:10:29.062Z,83.80
2019-05-09T06:13:07.784Z,84.00
2019-05-09T06:15:37.870Z,83.70
2019-05-09T06:18:08.098Z,83.80
2019-05-09T06:20:38.546Z,83.90
2019-05-09T06:23:08.614Z,84.10
2019-05-09T06:25:38.944Z,83.90
2019-05-09T06:28:08.487Z,84.00
2019-05-09T06:30:41.144Z,84.00
2019-05-09T06:33:09.551Z,84.40
2019-05-09T06:35:38.895Z,84.40
2019-05-09T06:38:08.160Z,83.60
2019-05-09T06:40:38.283Z,83.60
2019-05-09T06:43:25.292Z,83.70
2019-05-09T06:46:13.009Z,84.10
2019-05-09T06:48:42.367Z,83.80
2019-05-09T06:51:11.671Z,83.60
2019-05-09T06:53:40.960Z,83.40
2019-05-09T06:56:10.218Z,83.70
2019-05-09T06:58:40.001Z,83.20
2019-05-09T07:01:28.519Z,82.80
2019-05-09T07:04:03.529Z,82.40
2019-05-09T07:06:48.946Z,83.10
2019-05-09T07:09:31.275Z,83.00
2019-05-09T07:12:00.877Z,82.70
2019-05-09T07:14:33.861Z,83.10
2019-05-09T07:17:03.138Z,82.20
2019-05-09T07:19:32.428Z,82.20
2019-05-09T07:22:28.057Z,82.20
2019-05-09T07:25:10.932Z,82.30
2019-05-09T07:27:39.888Z,82.20
2019-05-09T07:30:17.947Z,82.90
2019-05-09T07:33:03.195Z,81.80
2019-05-09T07:35:32.814Z,81.30
2019-05-09T07:38:02.081Z,81.30
2019-05-09T07:40:31.598Z,82.00
2019-05-09T07:43:00.897Z,81.50
2019-05-09T07:45:30.091Z,81.30
2019-05-09T07:47:59.295Z,81.10
2019-05-09T07:50:28.593Z,80.90
2019-05-09T07:52:58.322Z,80.30
2019-05-09T07:55:27.781Z,80.50
2019-05-09T07:57:59.184Z,80.20
2019-05-09T08:00:33.198Z,79.80
2019-05-09T08:03:02.476Z,79.50
2019-05-09T08:05:31.826Z,79.40
2019-05-09T08:08:01.146Z,79.10
2019-05-09T08:10:33.121Z,79.70
2019-05-09T08:13:01.542Z,78.60
2019-05-09T08:15:30.802Z,79.20
2019-05-09T08:18:00.105Z,79.60
2019-05-09T08:20:29.412Z,80.40
2019-05-09T08:23:01.958Z,80.00
2019-05-09T08:25:29.568Z,78.60
2019-05-09T08:27:59.059Z,78.30
2019-05-09T08:30:35.506Z,77.60
2019-05-09T08:33:01.556Z,76.80
2019-05-09T08:35:30.854Z,76.50
2019-05-09T08:38:00.147Z,76.70
2019-05-09T08:40:29.444Z,76.70
2019-05-09T08:42:59.097Z,76.10
2019-05-09T08:45:31.318Z,74.50
2019-05-09T08:48:00.261Z,74.10
2019-05-09T08:50:39.129Z,73.90
2019-05-09T08:53:08.578Z,73.70
2019-05-09T08:55:38.647Z,73.80
2019-05-09T08:58:08.203Z,73.90
2019-05-09T09:00:39.074Z,72.90
2019-05-09T09:03:08.609Z,72.20
2019-05-09T09:05:38.350Z,71.40
2019-05-09T09:08:08.467Z,71.30
2019-05-09T09:10:38.626Z,70.10
2019-05-09T09:13:13.360Z,70.70
2019-05-09T09:16:05.141Z,69.30
2019-05-09T09:18:17.924Z,68.70
2019-05-09T09:20:48.536Z,67.60
2019-05-09T09:23:18.251Z,67.00
2019-05-09T09:25:48.764Z,67.90
2019-05-09T09:28:18.429Z,67.90
2019-05-09T09:30:48.607Z,67.70
2019-05-09T09:33:17.967Z,66.60
2019-05-09T09:35:48.920Z,66.70
2019-05-09T09:38:18.439Z,65.50
2019-05-09T09:40:47.915Z,65.10
2019-05-09T09:43:17.740Z,64.40
2019-05-09T09:45:48.088Z,64.20
2019-05-09T09:48:18.279Z,64.70
2019-05-09T09:50:51.488Z,65.00
2019-05-09T09:53:18.633Z,64.60
2019-05-09T09:55:47.996Z,62.90
2019-05-09T09:58:19.003Z,62.80
2019-05-09T10:01:10.078Z,62.70
2019-05-09T10:03:40.254Z,61.30
2019-05-09T10:06:09.845Z,61.80
2019-05-09T10:08:39.950Z,61.50
2019-05-09T10:11:10.563Z,61.20
2019-05-09T10:13:39.875Z,61.00
2019-05-09T10:16:32.718Z,61.10
2019-05-09T10:19:18.524Z,60.60
2019-05-09T10:21:51.417Z,60.70
2019-05-09T10:24:20.782Z,60.30
2019-05-09T10:27:10.188Z,59.90
2019-05-09T10:29:39.417Z,59.70
2019-05-09T10:32:11.967Z,58.80
2019-05-09T10:34:44.203Z,59.10
2019-05-09T10:37:14.021Z,59.40
2019-05-09T10:39:43.322Z,58.10
2019-05-09T10:42:31.694Z,58.30
2019-05-09T10:45:18.752Z,58.20
2019-05-09T10:47:51.505Z,58.10
2019-05-09T10:50:20.827Z,58.30
2019-05-09T10:52:50.430Z,58.00
2019-05-09T10:55:20.115Z,57.30
2019-05-09T10:57:52.223Z,57.20
2019-05-09T11:00:20.381Z,57.20
2019-05-09T11:02:49.740Z,56.90
2019-05-09T11:05:19.533Z,56.60
2019-05-09T11:07:49.644Z,56.70
2019-05-09T11:10:25.970Z,56.50
2019-05-09T11:12:50.018Z,56.00
2019-05-09T11:15:19.300Z,55.60
2019-05-09T11:17:48.573Z,55.60
2019-05-09T11:20:19.395Z,55.40
2019-05-09T11:22:48.952Z,54.90
2019-05-09T11:25:18.273Z,54.80
2019-05-09T11:28:06.961Z,55.00
2019-05-09T11:30:21.456Z,54.50
2019-05-09T11:32:50.721Z,54.30
2019-05-09T11:35:19.943Z,54.10
2019-05-09T11:37:49.127Z,54.30
2019-05-09T11:40:18.477Z,54.60
2019-05-09T11:42:48.227Z,53.90
2019-05-09T11:45:18.109Z,53.90
2019-05-09T11:47:47.559Z,54.20
2019-05-09T11:50:22.656Z,53.70
2019-05-09T11:52:49.440Z,54.20
2019-05-09T11:55:29.788Z,54.50
2019-05-09T11:57:49.678Z,54.40
2019-05-09T12:00:20.746Z,54.10
2019-05-09T12:02:50.140Z,53.40
2019-05-09T12:05:19.583Z,53.00
2019-05-09T12:07:48.902Z,52.60
2019-05-09T12:10:18.755Z,52.50
2019-05-09T12:12:48.267Z,51.90
2019-05-09T12:15:17.537Z,52.00
2019-05-09T12:17:57.143Z,52.20
2019-05-09T12:20:18.191Z,52.10
2019-05-09T12:22:48.477Z,52.10
2019-05-09T12:25:18.343Z,52.50
2019-05-09T12:27:48.684Z,52.60
2019-05-09T12:30:20.135Z,52.50
2019-05-09T12:32:49.464Z,52.60
2019-05-09T12:35:19.147Z,52.60
2019-05-09T12:37:48.576Z,52.70
2019-05-09T12:40:20.027Z,52.90
2019-05-09T12:42:50.360Z,52.70
2019-05-09T12:45:19.869Z,52.30
2019-05-09T12:47:49.159Z,52.10
2019-05-09T12:50:18.765Z,52.10
2019-05-09T12:52:48.739Z,52.40
2019-05-09T12:55:18.263Z,52.60
2019-05-09T12:57:48.892Z,52.40
2019-05-09T13:00:18.831Z,52.80
2019-05-09T13:02:48.336Z,51.60
2019-05-09T13:05:18.131Z,50.70
2019-05-09T13:07:48.225Z,49.80
2019-05-09T13:10:20.368Z,50.00
2019-05-09T13:12:49.655Z,50.70
2019-05-09T13:15:21.202Z,50.00
2019-05-09T13:17:51.378Z,49.20
2019-05-09T13:20:20.598Z,48.80
2019-05-09T13:22:49.815Z,48.60
2019-05-09T13:25:19.227Z,48.90
2019-05-09T13:27:52.513Z,47.90
2019-05-09T13:30:19.649Z,48.00
2019-05-09T13:32:48.942Z,48.50
2019-05-09T13:35:19.862Z,48.50
2019-05-09T13:37:49.340Z,48.30
2019-05-09T13:40:19.118Z,48.60
2019-05-09T13:42:49.482Z,49.50
2019-05-09T13:45:18.981Z,48.60
2019-05-09T13:47:49.672Z,48.00
2019-05-09T13:50:19.186Z,48.10
2019-05-09T13:52:48.482Z,48.30
2019-05-09T13:55:18.101Z,48.10
2019-05-09T13:57:48.629Z,47.10
2019-05-09T14:00:18.778Z,47.10
2019-05-09T14:02:48.834Z,47.10
2019-05-09T14:05:19.295Z,47.60
2019-05-09T14:07:51.195Z,46.90
2019-05-09T14:10:19.650Z,47.30
2019-05-09T14:13:04.293Z,47.40
2019-05-09T14:15:19.977Z,48.70
2019-05-09T14:17:53.410Z,49.30
2019-05-09T14:20:20.208Z,49.20
2019-05-09T14:22:49.571Z,50.00
2019-05-09T14:25:19.790Z,50.10
2019-05-09T14:27:52.245Z,50.00
2019-05-09T14:30:20.275Z,49.20
2019-05-09T14:32:50.008Z,49.50
2019-05-09T14:35:19.535Z,51.40
2019-05-09T14:37:48.969Z,51.40
2019-05-09T14:40:18.253Z,50.60
2019-05-09T14:42:49.497Z,50.40
2019-05-09T14:45:18.623Z,49.90
2019-05-09T14:47:47.901Z,48.20
2019-05-09T14:50:18.101Z,48.00
2019-05-09T14:52:49.281Z,47.40
2019-05-09T14:55:18.593Z,47.90
2019-05-09T14:57:48.103Z,48.20
2019-05-09T15:00:18.843Z,48.40
2019-05-09T15:02:49.022Z,48.40
2019-05-09T15:05:18.973Z,48.60
2019-05-09T15:07:48.483Z,49.20
2019-05-09T15:10:18.829Z,49.60
2019-05-09T15:12:48.721Z,50.00
2019-05-09T15:15:18.630Z,49.10
2019-05-09T15:17:49.358Z,47.60
2019-05-09T15:20:19.140Z,46.90
2019-05-09T15:22:48.454Z,46.50
2019-05-09T15:25:19.641Z,46.30
2019-05-09T15:27:48.820Z,46.70
2019-05-09T15:30:18.923Z,46.90
2019-05-09T15:32:51.657Z,46.20
2019-05-09T15:35:19.343Z,45.90
2019-05-09T15:37:48.629Z,45.00
2019-05-09T15:40:18.053Z,44.40
2019-05-09T15:42:48.042Z,43.40
2019-05-09T15:45:18.214Z,42.50
2019-05-09T15:47:48.432Z,42.60
2019-05-09T15:50:22.868Z,43.00
2019-05-09T15:52:48.971Z,43.40
2019-05-09T15:55:18.273Z,44.10
2019-05-09T15:57:48.615Z,44.40
2019-05-09T16:00:19.184Z,43.40
2019-05-09T16:02:48.873Z,43.40
2019-05-09T16:05:18.303Z,43.80
2019-05-09T16:07:48.246Z,44.30
2019-05-09T16:10:18.050Z,44.80
2019-05-09T16:12:48.687Z,45.30
2019-05-09T16:15:19.785Z,45.00
2019-05-09T16:17:49.154Z,44.30
2019-05-09T16:20:36.093Z,44.70
2019-05-09T16:22:49.607Z,44.70
2019-05-09T16:25:19.319Z,44.70
2019-05-09T16:27:48.748Z,45.10
2019-05-09T16:30:18.119Z,45.40
2019-05-09T16:32:48.055Z,45.70
2019-05-09T16:35:18.168Z,45.60
2019-05-09T16:37:58.391Z,45.80
2019-05-09T16:40:18.680Z,45.90
2019-05-09T16:42:47.976Z,46.10
2019-05-09T16:45:18.195Z,46.40
2019-05-09T16:47:48.465Z,46.50
2019-05-09T16:50:18.218Z,46.70
2019-05-09T16:52:48.831Z,46.80
2019-05-09T16:55:23.185Z,47.10
2019-05-09T16:57:52.592Z,47.40
2019-05-09T17:00:32.271Z,47.80
2019-05-09T17:03:01.616Z,48.00
2019-05-09T17:05:30.881Z,48.10
2019-05-09T17:08:00.159Z,48.40
2019-05-09T17:10:29.468Z,48.70
2019-05-09T17:12:58.867Z,49.10
2019-05-09T17:15:29.213Z,49.80
2019-05-09T17:17:58.733Z,51.40
2019-05-09T17:20:43.053Z,51.50
2019-05-09T17:23:18.065Z,51.90
2019-05-09T17:25:48.041Z,52.30
2019-05-09T17:28:17.910Z,52.90
2019-05-09T17:30:49.253Z,53.70
2019-05-09T17:33:18.303Z,53.90
2019-05-09T17:35:48.385Z,54.20
2019-05-09T17:38:18.145Z,54.40
2019-05-09T17:40:48.652Z,54.60
2019-05-09T17:43:18.398Z,55.50
2019-05-09T17:45:48.113Z,55.10
2019-05-09T17:48:18.264Z,55.40
2019-05-09T17:50:47.887Z,55.40
2019-05-09T17:53:18.233Z,55.50
2019-05-09T17:55:47.966Z,55.50
2019-05-09T17:58:29.079Z,55.60
2019-05-09T18:00:48.696Z,55.70
2019-05-09T18:03:18.368Z,56.00
2019-05-09T18:05:48.649Z,56.50
2019-05-09T18:08:18.890Z,57.10
2019-05-09T18:10:51.279Z,57.70
2019-05-09T18:13:23.887Z,59.00
2019-05-09T18:15:51.932Z,60.30
2019-05-09T18:18:21.252Z,61.00
2019-05-09T18:20:50.614Z,61.40
2019-05-09T18:23:19.886Z,62.10
2019-05-09T18:25:51.336Z,63.10
2019-05-09T18:28:20.692Z,64.80
2019-05-09T18:30:50.077Z,65.80
2019-05-09T18:33:41.610Z,66.50
2019-05-09T18:36:10.879Z,67.30
2019-05-09T18:38:40.236Z,68.30
2019-05-09T18:41:10.269Z,68.90
2019-05-09T18:43:39.664Z,68.90
2019-05-09T18:46:08.966Z,69.20
2019-05-09T18:48:39.142Z,69.50
2019-05-09T18:51:08.885Z,70.00
2019-05-09T18:53:40.959Z,70.20
2019-05-09T18:56:10.223Z,70.10
2019-05-09T18:58:39.619Z,69.40
2019-05-09T19:01:09.617Z,69.70
2019-05-09T19:03:39.470Z,68.70
2019-05-09T19:06:08.852Z,68.70
2019-05-09T19:08:38.125Z,68.80
2019-05-09T19:11:07.518Z,69.00
2019-05-09T19:13:36.865Z,68.80
2019-05-09T19:16:24.052Z,69.20
2019-05-09T19:19:12.517Z,68.90
2019-05-09T19:21:45.529Z,68.60
2019-05-09T19:24:14.921Z,69.10
2019-05-09T19:26:44.116Z,68.80
2019-05-09T19:29:13.413Z,69.20
2019-05-09T19:31:42.768Z,69.10
2019-05-09T19:34:12.116Z,69.60
2019-05-09T19:36:41.478Z,69.80
2019-05-09T19:39:11.887Z,70.00
2019-05-09T19:41:41.259Z,70.10
2019-05-09T19:44:10.667Z,70.10
2019-05-09T19:46:40.436Z,70.40
2019-05-09T19:49:09.744Z,70.60
2019-05-09T19:51:39.054Z,70.40
2019-05-09T19:54:08.456Z,70.60
2019-05-09T19:56:37.673Z,70.70
2019-05-09T19:59:08.070Z,71.10
2019-05-09T20:01:38.041Z,71.30
2019-05-09T20:04:07.370Z,71.60
2019-05-09T20:06:36.586Z,72.20
2019-05-09T20:09:15.504Z,72.30
2019-05-09T20:12:03.814Z,72.50
2019-05-09T20:14:38.602Z,72.60
2019-05-09T20:17:07.953Z,72.70
2019-05-09T20:19:37.482Z,73.00
2019-05-09T20:22:07.097Z,73.40
2019-05-09T20:24:36.929Z,73.50
2019-05-09T20:27:06.258Z,73.60
2019-05-09T20:29:35.945Z,74.00
2019-05-09T20:32:05.450Z,74.20
2019-05-09T20:34:34.783Z,75.00
2019-05-09T20:37:04.059Z,74.40
2019-05-09T20:39:33.490Z,74.50
2019-05-09T20:42:03.039Z,74.50
2019-05-09T20:44:32.649Z,74.20
2019-05-09T20:47:02.144Z,74.20
2019-05-09T20:49:31.716Z,74.40
2019-05-09T20:52:01.131Z,74.40
2019-05-09T20:54:30.616Z,74.30
2019-05-09T20:57:00.085Z,74.30
2019-05-09T20:59:29.921Z,74.40
2019-05-09T21:01:59.552Z,74.40
2019-05-09T21:04:31.813Z,74.30
2019-05-09T21:07:01.341Z,74.30
2019-05-09T21:09:30.935Z,74.40
2019-05-09T21:12:00.457Z,74.40
2019-05-09T21:14:30.005Z,74.60
2019-05-09T21:16:59.515Z,74.40
2019-05-09T21:19:29.081Z,74.50
2019-05-09T21:21:58.978Z,75.10
2019-05-09T21:24:28.396Z,74.50
2019-05-09T21:26:57.884Z,74.70
2019-05-09T21:29:27.361Z,74.80
2019-05-09T21:31:56.766Z,74.90
2019-05-09T21:34:26.640Z,75.10
2019-05-09T21:36:59.115Z,75.10
2019-05-09T21:39:28.399Z,75.30
2019-05-09T21:41:57.673Z,75.30
2019-05-09T21:44:27.459Z,75.50
2019-05-09T21:46:56.913Z,75.60
2019-05-09T21:49:26.115Z,75.70
2019-05-09T21:51:55.355Z,75.90
2019-05-09T21:54:24.691Z,76.00
2019-05-09T21:56:53.985Z,76.10
2019-05-09T21:59:23.322Z,76.30
2019-05-09T22:01:53.178Z,76.40
2019-05-09T22:04:22.746Z,76.50
2019-05-09T22:06:52.109Z,76.30
2019-05-09T22:09:21.437Z,76.10
2019-05-09T22:11:50.745Z,76.10
2019-05-09T22:14:19.971Z,76.00
2019-05-09T22:16:49.488Z,75.90
2019-05-09T22:19:18.749Z,75.90
2019-05-09T22:21:47.993Z,76.10
2019-05-09T22:24:18.119Z,76.10
2019-05-09T22:26:47.432Z,76.10
2019-05-09T22:29:17.106Z,75.80
2019-05-09T22:31:46.497Z,75.60
2019-05-09T22:34:15.800Z,75.50
2019-05-09T22:36:45.075Z,75.60
2019-05-09T22:39:14.318Z,75.70
2019-05-09T22:41:43.820Z,75.70
2019-05-09T22:44:13.207Z,75.60
2019-05-09T22:46:42.506Z,75.60
2019-05-09T22:49:11.787Z,75.70
2019-05-09T22:51:41.024Z,75.70
2019-05-09T22:54:12.778Z,75.90
2019-05-09T22:56:42.414Z,76.00
2019-05-09T22:59:11.634Z,76.10
2019-05-09T23:01:40.934Z,76.20
2019-05-09T23:04:10.168Z,76.30
2019-05-09T23:06:39.406Z,76.40
2019-05-09T23:09:08.721Z,76.60
2019-05-09T23:11:37.965Z,76.50
2019-05-09T23:14:07.419Z,76.60
2019-05-09T23:16:38.965Z,76.70
2019-05-09T23:19:08.755Z,76.70
2019-05-09T23:21:38.197Z,76.80
2019-05-09T23:24:09.579Z,76.90
2019-05-09T23:26:38.983Z,76.90
2019-05-09T23:29:08.383Z,76.60
2019-05-09T23:31:48.373Z,76.50
2019-05-09T23:34:17.639Z,76.40
2019-05-09T23:36:46.939Z,76.30
2019-05-09T23:39:27.768Z,76.00
2019-05-09T23:41:57.020Z,76.10
2019-05-09T23:44:26.230Z,76.10
2019-05-09T23:46:55.435Z,75.40
2019-05-09T23:49:24.667Z,75.30
2019-05-09T23:51:53.994Z,75.10
2019-05-09T23:54:46.763Z,74.80
2019-05-09T23:57:30.238Z,74.30
